Weather at Carnungra-Moriarity Park HLS

Public forecast

Using degrees Celsius for public forecast. Weather courtesy of forecast.io.

Closest aviation weather report (METAR) to Carnungra-Moriarity Park HLS

Closest report is Gold Coast Airport, 20.3 nm (37.5 km) ESE. Retrieved 2020/10/27 14:30 UTC (17 minutes ago):

YBCG 271430Z AUTO 23005KT 9999 // SCT100 19/17 Q1016 RF000/0174

Closest aviation forecast (TAF) to Carnungra-Moriarity Park HLS

Forecast is more than 6 hours old.

Closest forecast is Gold Coast Airport, 20.3 nm (37.5 km) ESE. Retrieved 2020/10/27 06:00 UTC (9 hours ago):

TAF YBCG 270529Z 2706/2806 16014KT 9999 -SHRA SCT020 BKN040 FM271000 19007KT 9999 -SHRA SCT012 BKN020 FM272000 18008KT 9999 NSW FEW020 FM280000 10008KT 9999 SCT030 TEMPO 2706/2718 3000 SHRA BKN010 PROB30 TEMPO 2706/2712 VRB20G45KT 1000 TSRA BKN010 SCT030CB PROB30 TEMPO 2804/2806 VRB30G45KT 1000 TSRA BKN010 SCT030CB